sensor_id;sensor_type;location;lat;lon;timestamp;P1;durP1;ratioP1;P2;durP2;ratioP2
64881;SDS011;51375;44.836;38.672;2023-11-19T00:00:34;5.47;;;3.17;;
64881;SDS011;51375;44.836;38.672;2023-11-19T00:02:59;5.13;;;3.17;;
64881;SDS011;51375;44.836;38.672;2023-11-19T00:05:26;6.38;;;3.50;;
64881;SDS011;51375;44.836;38.672;2023-11-19T00:07:53;4.95;;;3.40;;
64881;SDS011;51375;44.836;38.672;2023-11-19T00:10:19;5.63;;;3.15;;
64881;SDS011;51375;44.836;38.672;2023-11-19T00:12:47;5.13;;;3.13;;
64881;SDS011;51375;44.836;38.672;2023-11-19T00:15:14;5.28;;;3.60;;
64881;SDS011;51375;44.836;38.672;2023-11-19T00:17:46;5.28;;;3.10;;
64881;SDS011;51375;44.836;38.672;2023-11-19T00:20:17;4.00;;;2.47;;
64881;SDS011;51375;44.836;38.672;2023-11-19T00:22:44;5.68;;;3.72;;
64881;SDS011;51375;44.836;38.672;2023-11-19T00:25:13;6.20;;;3.65;;
64881;SDS011;51375;44.836;38.672;2023-11-19T00:27:39;6.95;;;4.00;;
64881;SDS011;51375;44.836;38.672;2023-11-19T00:30:06;6.00;;;3.75;;
64881;SDS011;51375;44.836;38.672;2023-11-19T00:32:33;6.45;;;4.00;;
64881;SDS011;51375;44.836;38.672;2023-11-19T00:34:59;6.25;;;3.65;;
64881;SDS011;51375;44.836;38.672;2023-11-19T00:37:26;6.32;;;4.18;;
64881;SDS011;51375;44.836;38.672;2023-11-19T00:39:52;5.25;;;3.20;;
64881;SDS011;51375;44.836;38.672;2023-11-19T00:42:18;6.25;;;3.70;;
64881;SDS011;51375;44.836;38.672;2023-11-19T00:44:44;6.43;;;4.30;;
64881;SDS011;51375;44.836;38.672;2023-11-19T00:47:11;6.43;;;4.03;;
64881;SDS011;51375;44.836;38.672;2023-11-19T00:49:37;5.15;;;3.70;;
64881;SDS011;51375;44.836;38.672;2023-11-19T00:52:03;6.55;;;4.03;;
64881;SDS011;51375;44.836;38.672;2023-11-19T00:54:29;6.97;;;3.95;;
64881;SDS011;51375;44.836;38.672;2023-11-19T00:56:55;7.85;;;3.78;;
64881;SDS011;51375;44.836;38.672;2023-11-19T00:59:21;3.67;;;2.85;;
64881;SDS011;51375;44.836;38.672;2023-11-19T01:01:47;6.82;;;4.22;;
64881;SDS011;51375;44.836;38.672;2023-11-19T01:04:18;8.10;;;3.95;;
64881;SDS011;51375;44.836;38.672;2023-11-19T01:06:45;7.82;;;4.38;;
64881;SDS011;51375;44.836;38.672;2023-11-19T01:09:11;7.10;;;3.90;;
64881;SDS011;51375;44.836;38.672;2023-11-19T01:11:37;9.52;;;4.63;;
64881;SDS011;51375;44.836;38.672;2023-11-19T01:14:03;8.43;;;4.80;;
64881;SDS011;51375;44.836;38.672;2023-11-19T01:16:28;5.45;;;4.13;;
64881;SDS011;51375;44.836;38.672;2023-11-19T01:18:55;6.70;;;4.03;;
64881;SDS011;51375;44.836;38.672;2023-11-19T01:21:21;6.80;;;4.15;;
64881;SDS011;51375;44.836;38.672;2023-11-19T01:23:47;4.35;;;3.42;;
64881;SDS011;51375;44.836;38.672;2023-11-19T01:26:13;9.40;;;5.05;;
64881;SDS011;51375;44.836;38.672;2023-11-19T01:28:39;6.95;;;3.75;;
64881;SDS011;51375;44.836;38.672;2023-11-19T01:31:12;6.60;;;4.97;;
64881;SDS011;51375;44.836;38.672;2023-11-19T01:33:41;4.85;;;3.70;;
64881;SDS011;51375;44.836;38.672;2023-11-19T01:36:07;8.32;;;4.13;;
64881;SDS011;51375;44.836;38.672;2023-11-19T01:38:36;8.10;;;4.78;;
64881;SDS011;51375;44.836;38.672;2023-11-19T01:41:03;7.63;;;4.55;;
64881;SDS011;51375;44.836;38.672;2023-11-19T01:43:36;7.63;;;4.65;;
64881;SDS011;51375;44.836;38.672;2023-11-19T01:46:04;6.38;;;4.15;;
64881;SDS011;51375;44.836;38.672;2023-11-19T01:48:32;5.20;;;3.67;;
64881;SDS011;51375;44.836;38.672;2023-11-19T01:51:01;11.38;;;5.03;;
64881;SDS011;51375;44.836;38.672;2023-11-19T01:53:29;8.07;;;5.13;;
64881;SDS011;51375;44.836;38.672;2023-11-19T01:55:57;7.90;;;4.30;;
64881;SDS011;51375;44.836;38.672;2023-11-19T01:58:23;9.05;;;4.82;;
64881;SDS011;51375;44.836;38.672;2023-11-19T02:00:49;11.10;;;5.55;;
64881;SDS011;51375;44.836;38.672;2023-11-19T02:03:15;8.50;;;5.68;;
64881;SDS011;51375;44.836;38.672;2023-11-19T02:05:42;6.78;;;4.70;;
64881;SDS011;51375;44.836;38.672;2023-11-19T02:08:08;10.20;;;5.63;;
64881;SDS011;51375;44.836;38.672;2023-11-19T02:10:34;9.15;;;5.20;;
64881;SDS011;51375;44.836;38.672;2023-11-19T02:13:00;8.55;;;5.03;;
64881;SDS011;51375;44.836;38.672;2023-11-19T02:15:28;8.65;;;4.43;;
64881;SDS011;51375;44.836;38.672;2023-11-19T02:17:53;10.95;;;5.22;;
64881;SDS011;51375;44.836;38.672;2023-11-19T02:20:20;9.02;;;5.30;;
64881;SDS011;51375;44.836;38.672;2023-11-19T02:22:49;8.07;;;5.30;;
64881;SDS011;51375;44.836;38.672;2023-11-19T02:25:23;8.60;;;5.05;;
64881;SDS011;51375;44.836;38.672;2023-11-19T02:28:01;9.45;;;5.28;;
64881;SDS011;51375;44.836;38.672;2023-11-19T02:30:29;7.63;;;5.43;;
64881;SDS011;51375;44.836;38.672;2023-11-19T02:32:55;7.97;;;5.20;;
64881;SDS011;51375;44.836;38.672;2023-11-19T02:35:24;6.80;;;4.95;;
64881;SDS011;51375;44.836;38.672;2023-11-19T02:37:51;8.52;;;5.75;;
64881;SDS011;51375;44.836;38.672;2023-11-19T02:40:17;7.55;;;4.80;;
64881;SDS011;51375;44.836;38.672;2023-11-19T02:42:43;7.88;;;4.80;;
64881;SDS011;51375;44.836;38.672;2023-11-19T02:45:09;8.48;;;5.28;;
64881;SDS011;51375;44.836;38.672;2023-11-19T02:47:40;12.88;;;5.50;;
64881;SDS011;51375;44.836;38.672;2023-11-19T02:50:09;10.25;;;5.75;;
64881;SDS011;51375;44.836;38.672;2023-11-19T02:52:43;9.20;;;5.18;;
64881;SDS011;51375;44.836;38.672;2023-11-19T02:55:11;10.88;;;6.22;;
64881;SDS011;51375;44.836;38.672;2023-11-19T02:57:41;9.95;;;5.97;;
64881;SDS011;51375;44.836;38.672;2023-11-19T03:00:19;7.63;;;5.07;;
64881;SDS011;51375;44.836;38.672;2023-11-19T03:02:50;8.43;;;3.90;;
64881;SDS011;51375;44.836;38.672;2023-11-19T03:05:30;7.70;;;4.28;;
64881;SDS011;51375;44.836;38.672;2023-11-19T03:07:56;8.65;;;4.95;;
64881;SDS011;51375;44.836;38.672;2023-11-19T03:10:22;7.65;;;4.53;;
64881;SDS011;51375;44.836;38.672;2023-11-19T03:12:49;9.48;;;4.88;;
64881;SDS011;51375;44.836;38.672;2023-11-19T03:15:15;5.55;;;3.75;;
64881;SDS011;51375;44.836;38.672;2023-11-19T03:17:41;9.00;;;5.20;;
64881;SDS011;51375;44.836;38.672;2023-11-19T03:20:09;8.85;;;4.72;;
64881;SDS011;51375;44.836;38.672;2023-11-19T03:22:41;7.35;;;4.63;;
64881;SDS011;51375;44.836;38.672;2023-11-19T03:25:07;8.82;;;4.70;;
64881;SDS011;51375;44.836;38.672;2023-11-19T03:27:37;9.40;;;5.60;;
64881;SDS011;51375;44.836;38.672;2023-11-19T03:30:09;7.93;;;5.60;;
64881;SDS011;51375;44.836;38.672;2023-11-19T03:32:36;9.13;;;5.15;;
64881;SDS011;51375;44.836;38.672;2023-11-19T03:35:04;6.80;;;3.95;;
64881;SDS011;51375;44.836;38.672;2023-11-19T03:37:33;8.77;;;4.45;;
64881;SDS011;51375;44.836;38.672;2023-11-19T03:39:59;8.75;;;4.93;;
64881;SDS011;51375;44.836;38.672;2023-11-19T03:42:27;5.82;;;3.60;;
64881;SDS011;51375;44.836;38.672;2023-11-19T03:44:53;6.07;;;4.18;;
64881;SDS011;51375;44.836;38.672;2023-11-19T03:47:20;6.63;;;4.47;;
64881;SDS011;51375;44.836;38.672;2023-11-19T03:49:51;5.97;;;3.90;;
64881;SDS011;51375;44.836;38.672;2023-11-19T03:52:17;8.30;;;4.72;;
64881;SDS011;51375;44.836;38.672;2023-11-19T03:54:44;7.07;;;4.30;;
64881;SDS011;51375;44.836;38.672;2023-11-19T03:57:12;8.07;;;4.30;;
64881;SDS011;51375;44.836;38.672;2023-11-19T03:59:38;13.70;;;5.65;;
64881;SDS011;51375;44.836;38.672;2023-11-19T04:02:05;7.32;;;4.60;;
64881;SDS011;51375;44.836;38.672;2023-11-19T04:04:31;7.68;;;4.32;;
64881;SDS011;51375;44.836;38.672;2023-11-19T04:06:59;4.70;;;3.47;;
64881;SDS011;51375;44.836;38.672;2023-11-19T04:09:26;6.50;;;4.10;;
64881;SDS011;51375;44.836;38.672;2023-11-19T04:11:52;7.47;;;4.63;;
64881;SDS011;51375;44.836;38.672;2023-11-19T04:14:18;6.38;;;4.13;;
64881;SDS011;51375;44.836;38.672;2023-11-19T04:16:44;8.95;;;4.00;;
64881;SDS011;51375;44.836;38.672;2023-11-19T04:19:11;4.65;;;3.38;;
64881;SDS011;51375;44.836;38.672;2023-11-19T04:21:37;6.30;;;3.85;;
64881;SDS011;51375;44.836;38.672;2023-11-19T04:24:06;4.60;;;3.10;;
64881;SDS011;51375;44.836;38.672;2023-11-19T04:26:33;6.45;;;3.70;;
64881;SDS011;51375;44.836;38.672;2023-11-19T04:28:59;5.40;;;3.53;;
64881;SDS011;51375;44.836;38.672;2023-11-19T04:31:29;4.50;;;2.80;;
64881;SDS011;51375;44.836;38.672;2023-11-19T04:33:58;4.75;;;3.40;;
64881;SDS011;51375;44.836;38.672;2023-11-19T04:36:25;4.10;;;3.00;;
64881;SDS011;51375;44.836;38.672;2023-11-19T04:38:51;5.22;;;3.47;;
64881;SDS011;51375;44.836;38.672;2023-11-19T04:41:17;5.25;;;3.20;;
64881;SDS011;51375;44.836;38.672;2023-11-19T04:43:43;5.47;;;3.20;;
64881;SDS011;51375;44.836;38.672;2023-11-19T04:46:09;5.18;;;2.70;;
64881;SDS011;51375;44.836;38.672;2023-11-19T04:48:35;4.28;;;2.67;;
64881;SDS011;51375;44.836;38.672;2023-11-19T04:51:04;8.30;;;2.65;;
64881;SDS011;51375;44.836;38.672;2023-11-19T04:53:31;2.97;;;2.10;;
64881;SDS011;51375;44.836;38.672;2023-11-19T04:55:56;6.15;;;2.35;;
64881;SDS011;51375;44.836;38.672;2023-11-19T04:58:22;3.28;;;2.38;;
64881;SDS011;51375;44.836;38.672;2023-11-19T05:00:49;2.60;;;2.00;;
64881;SDS011;51375;44.836;38.672;2023-11-19T05:03:14;2.17;;;1.77;;
64881;SDS011;51375;44.836;38.672;2023-11-19T05:05:40;3.38;;;1.98;;
64881;SDS011;51375;44.836;38.672;2023-11-19T05:08:07;1.75;;;1.60;;
64881;SDS011;51375;44.836;38.672;2023-11-19T05:10:32;3.38;;;1.63;;
64881;SDS011;51375;44.836;38.672;2023-11-19T05:12:59;1.95;;;1.70;;
64881;SDS011;51375;44.836;38.672;2023-11-19T05:15:24;1.35;;;1.17;;
64881;SDS011;51375;44.836;38.672;2023-11-19T05:17:51;1.95;;;1.50;;
64881;SDS011;51375;44.836;38.672;2023-11-19T05:20:17;2.25;;;1.40;;
64881;SDS011;51375;44.836;38.672;2023-11-19T05:22:43;2.42;;;1.60;;
64881;SDS011;51375;44.836;38.672;2023-11-19T05:25:09;1.48;;;1.30;;
64881;SDS011;51375;44.836;38.672;2023-11-19T05:27:36;1.80;;;1.50;;
64881;SDS011;51375;44.836;38.672;2023-11-19T05:30:03;3.40;;;1.55;;
64881;SDS011;51375;44.836;38.672;2023-11-19T05:32:32;2.00;;;1.20;;
64881;SDS011;51375;44.836;38.672;2023-11-19T05:34:59;6.00;;;1.25;;
64881;SDS011;51375;44.836;38.672;2023-11-19T05:37:25;2.47;;;1.20;;
64881;SDS011;51375;44.836;38.672;2023-11-19T05:39:51;1.17;;;0.90;;
64881;SDS011;51375;44.836;38.672;2023-11-19T05:42:17;2.63;;;1.05;;
64881;SDS011;51375;44.836;38.672;2023-11-19T05:44:43;1.08;;;0.98;;
64881;SDS011;51375;44.836;38.672;2023-11-19T05:47:09;1.83;;;1.17;;
64881;SDS011;51375;44.836;38.672;2023-11-19T05:49:35;2.45;;;0.95;;
64881;SDS011;51375;44.836;38.672;2023-11-19T05:52:01;1.60;;;0.98;;
64881;SDS011;51375;44.836;38.672;2023-11-19T05:54:28;2.75;;;1.20;;
64881;SDS011;51375;44.836;38.672;2023-11-19T05:56:54;2.80;;;1.10;;
64881;SDS011;51375;44.836;38.672;2023-11-19T05:59:20;3.92;;;1.67;;
64881;SDS011;51375;44.836;38.672;2023-11-19T06:01:48;2.17;;;1.42;;
64881;SDS011;51375;44.836;38.672;2023-11-19T06:04:14;3.13;;;1.70;;
64881;SDS011;51375;44.836;38.672;2023-11-19T06:06:40;1.38;;;1.27;;
64881;SDS011;51375;44.836;38.672;2023-11-19T06:09:06;2.08;;;1.10;;
64881;SDS011;51375;44.836;38.672;2023-11-19T06:11:33;1.92;;;0.90;;
64881;SDS011;51375;44.836;38.672;2023-11-19T06:14:01;4.18;;;1.50;;
64881;SDS011;51375;44.836;38.672;2023-11-19T06:16:28;2.33;;;1.10;;
64881;SDS011;51375;44.836;38.672;2023-11-19T06:18:54;3.20;;;1.15;;
64881;SDS011;51375;44.836;38.672;2023-11-19T06:21:20;3.95;;;1.27;;
64881;SDS011;51375;44.836;38.672;2023-11-19T06:23:46;2.95;;;1.20;;
64881;SDS011;51375;44.836;38.672;2023-11-19T06:26:12;1.10;;;1.00;;
64881;SDS011;51375;44.836;38.672;2023-11-19T06:28:39;1.00;;;0.80;;
64881;SDS011;51375;44.836;38.672;2023-11-19T06:31:05;3.90;;;1.40;;
64881;SDS011;51375;44.836;38.672;2023-11-19T06:33:31;1.17;;;1.08;;
64881;SDS011;51375;44.836;38.672;2023-11-19T06:35:58;0.80;;;0.80;;
64881;SDS011;51375;44.836;38.672;2023-11-19T06:38:25;1.52;;;1.20;;
64881;SDS011;51375;44.836;38.672;2023-11-19T06:40:51;1.50;;;1.05;;
64881;SDS011;51375;44.836;38.672;2023-11-19T06:43:17;2.20;;;1.40;;
64881;SDS011;51375;44.836;38.672;2023-11-19T06:45:43;1.10;;;1.00;;
64881;SDS011;51375;44.836;38.672;2023-11-19T06:48:09;0.93;;;0.90;;
64881;SDS011;51375;44.836;38.672;2023-11-19T06:50:35;1.38;;;1.17;;
64881;SDS011;51375;44.836;38.672;2023-11-19T06:53:00;1.75;;;1.38;;
64881;SDS011;51375;44.836;38.672;2023-11-19T06:55:26;2.03;;;1.10;;
64881;SDS011;51375;44.836;38.672;2023-11-19T06:57:52;1.00;;;0.98;;
64881;SDS011;51375;44.836;38.672;2023-11-19T07:00:18;1.40;;;0.90;;
64881;SDS011;51375;44.836;38.672;2023-11-19T07:02:46;1.98;;;1.30;;
64881;SDS011;51375;44.836;38.672;2023-11-19T07:05:13;2.05;;;1.30;;
64881;SDS011;51375;44.836;38.672;2023-11-19T07:07:39;1.75;;;1.13;;
64881;SDS011;51375;44.836;38.672;2023-11-19T07:10:05;1.45;;;1.20;;
64881;SDS011;51375;44.836;38.672;2023-11-19T07:12:34;1.00;;;0.98;;
64881;SDS011;51375;44.836;38.672;2023-11-19T07:15:01;1.95;;;1.13;;
64881;SDS011;51375;44.836;38.672;2023-11-19T07:17:29;1.48;;;1.38;;
64881;SDS011;51375;44.836;38.672;2023-11-19T07:20:02;1.00;;;0.90;;
64881;SDS011;51375;44.836;38.672;2023-11-19T07:22:28;2.80;;;1.10;;
64881;SDS011;51375;44.836;38.672;2023-11-19T07:24:55;1.20;;;1.10;;
64881;SDS011;51375;44.836;38.672;2023-11-19T07:27:21;1.77;;;1.23;;
64881;SDS011;51375;44.836;38.672;2023-11-19T07:29:49;5.68;;;0.90;;
64881;SDS011;51375;44.836;38.672;2023-11-19T07:32:15;1.13;;;1.00;;
64881;SDS011;51375;44.836;38.672;2023-11-19T07:34:41;1.73;;;1.20;;
64881;SDS011;51375;44.836;38.672;2023-11-19T07:37:07;1.13;;;0.90;;
64881;SDS011;51375;44.836;38.672;2023-11-19T07:39:33;2.53;;;1.23;;
64881;SDS011;51375;44.836;38.672;2023-11-19T07:42:00;0.80;;;0.80;;
64881;SDS011;51375;44.836;38.672;2023-11-19T07:44:26;1.40;;;0.90;;
64881;SDS011;51375;44.836;38.672;2023-11-19T07:50:39;1.33;;;1.02;;
64881;SDS011;51375;44.836;38.672;2023-11-19T07:53:06;1.05;;;1.00;;
64881;SDS011;51375;44.836;38.672;2023-11-19T07:55:33;1.10;;;1.00;;
64881;SDS011;51375;44.836;38.672;2023-11-19T07:57:59;1.13;;;0.90;;
64881;SDS011;51375;44.836;38.672;2023-11-19T08:00:25;1.02;;;0.93;;
64881;SDS011;51375;44.836;38.672;2023-11-19T08:02:52;2.83;;;0.90;;
64881;SDS011;51375;44.836;38.672;2023-11-19T08:05:18;1.17;;;1.05;;
64881;SDS011;51375;44.836;38.672;2023-11-19T08:07:44;1.00;;;0.90;;
64881;SDS011;51375;44.836;38.672;2023-11-19T08:10:10;2.05;;;1.20;;
64881;SDS011;51375;44.836;38.672;2023-11-19T08:12:36;0.70;;;0.70;;
64881;SDS011;51375;44.836;38.672;2023-11-19T08:15:03;0.60;;;0.60;;
64881;SDS011;51375;44.836;38.672;2023-11-19T08:17:30;0.70;;;0.70;;
64881;SDS011;51375;44.836;38.672;2023-11-19T08:19:56;1.23;;;1.00;;
64881;SDS011;51375;44.836;38.672;2023-11-19T08:22:23;3.45;;;1.10;;
64881;SDS011;51375;44.836;38.672;2023-11-19T08:24:49;4.40;;;0.93;;
64881;SDS011;51375;44.836;38.672;2023-11-19T08:27:15;1.27;;;0.90;;
64881;SDS011;51375;44.836;38.672;2023-11-19T08:29:41;1.30;;;1.00;;
64881;SDS011;51375;44.836;38.672;2023-11-19T08:32:06;1.27;;;1.08;;
64881;SDS011;51375;44.836;38.672;2023-11-19T08:34:32;1.95;;;1.27;;
64881;SDS011;51375;44.836;38.672;2023-11-19T08:36:59;1.13;;;0.93;;
64881;SDS011;51375;44.836;38.672;2023-11-19T08:39:25;3.85;;;1.95;;
64881;SDS011;51375;44.836;38.672;2023-11-19T08:41:50;1.92;;;1.35;;
64881;SDS011;51375;44.836;38.672;2023-11-19T08:44:16;1.10;;;1.00;;
64881;SDS011;51375;44.836;38.672;2023-11-19T08:46:48;1.85;;;1.20;;
64881;SDS011;51375;44.836;38.672;2023-11-19T08:49:14;2.05;;;1.27;;
64881;SDS011;51375;44.836;38.672;2023-11-19T08:51:40;6.22;;;2.85;;
64881;SDS011;51375;44.836;38.672;2023-11-19T08:54:07;10.73;;;4.43;;
64881;SDS011;51375;44.836;38.672;2023-11-19T08:56:33;3.85;;;2.40;;
64881;SDS011;51375;44.836;38.672;2023-11-19T08:59:00;4.32;;;2.58;;
64881;SDS011;51375;44.836;38.672;2023-11-19T09:01:27;7.03;;;2.38;;
64881;SDS011;51375;44.836;38.672;2023-11-19T09:03:54;2.53;;;1.30;;
64881;SDS011;51375;44.836;38.672;2023-11-19T09:06:20;1.35;;;1.10;;
64881;SDS011;51375;44.836;38.672;2023-11-19T09:08:45;2.47;;;1.70;;
64881;SDS011;51375;44.836;38.672;2023-11-19T09:11:11;3.00;;;1.95;;
64881;SDS011;51375;44.836;38.672;2023-11-19T09:13:37;1.60;;;1.10;;
64881;SDS011;51375;44.836;38.672;2023-11-19T09:16:03;1.65;;;1.10;;
64881;SDS011;51375;44.836;38.672;2023-11-19T09:18:30;2.70;;;1.45;;
64881;SDS011;51375;44.836;38.672;2023-11-19T09:20:57;3.30;;;1.70;;
64881;SDS011;51375;44.836;38.672;2023-11-19T09:23:23;1.75;;;1.40;;
64881;SDS011;51375;44.836;38.672;2023-11-19T09:25:54;1.10;;;1.00;;
64881;SDS011;51375;44.836;38.672;2023-11-19T09:28:20;2.33;;;1.52;;
64881;SDS011;51375;44.836;38.672;2023-11-19T09:30:47;2.28;;;1.33;;
64881;SDS011;51375;44.836;38.672;2023-11-19T09:33:13;2.33;;;1.30;;
64881;SDS011;51375;44.836;38.672;2023-11-19T09:35:39;1.27;;;1.17;;
64881;SDS011;51375;44.836;38.672;2023-11-19T09:38:05;2.35;;;1.15;;
64881;SDS011;51375;44.836;38.672;2023-11-19T09:40:30;1.67;;;1.13;;
64881;SDS011;51375;44.836;38.672;2023-11-19T09:42:57;3.05;;;1.10;;
64881;SDS011;51375;44.836;38.672;2023-11-19T09:45:23;1.80;;;1.40;;
64881;SDS011;51375;44.836;38.672;2023-11-19T09:47:54;2.90;;;1.80;;
64881;SDS011;51375;44.836;38.672;2023-11-19T09:50:22;2.70;;;1.30;;
64881;SDS011;51375;44.836;38.672;2023-11-19T09:52:49;2.05;;;1.23;;
64881;SDS011;51375;44.836;38.672;2023-11-19T09:55:15;2.22;;;1.30;;
64881;SDS011;51375;44.836;38.672;2023-11-19T09:57:41;1.58;;;1.20;;
64881;SDS011;51375;44.836;38.672;2023-11-19T10:00:09;1.98;;;1.15;;
64881;SDS011;51375;44.836;38.672;2023-11-19T10:02:37;1.13;;;1.02;;
64881;SDS011;51375;44.836;38.672;2023-11-19T10:05:06;1.10;;;1.00;;
64881;SDS011;51375;44.836;38.672;2023-11-19T10:07:33;1.98;;;1.10;;
64881;SDS011;51375;44.836;38.672;2023-11-19T10:09:59;2.10;;;1.33;;
64881;SDS011;51375;44.836;38.672;2023-11-19T10:12:27;1.60;;;1.50;;
64881;SDS011;51375;44.836;38.672;2023-11-19T10:14:54;1.50;;;1.30;;
64881;SDS011;51375;44.836;38.672;2023-11-19T10:17:26;2.00;;;1.27;;
64881;SDS011;51375;44.836;38.672;2023-11-19T10:19:54;1.45;;;1.10;;
64881;SDS011;51375;44.836;38.672;2023-11-19T10:22:22;2.58;;;1.30;;
64881;SDS011;51375;44.836;38.672;2023-11-19T10:24:48;3.60;;;1.45;;
64881;SDS011;51375;44.836;38.672;2023-11-19T10:27:14;2.78;;;1.48;;
64881;SDS011;51375;44.836;38.672;2023-11-19T10:29:43;1.52;;;1.20;;
64881;SDS011;51375;44.836;38.672;2023-11-19T10:32:12;2.08;;;1.20;;
64881;SDS011;51375;44.836;38.672;2023-11-19T10:34:39;1.58;;;1.30;;
64881;SDS011;51375;44.836;38.672;2023-11-19T10:37:06;1.60;;;1.20;;
64881;SDS011;51375;44.836;38.672;2023-11-19T10:42:19;1.52;;;1.30;;
64881;SDS011;51375;44.836;38.672;2023-11-19T10:44:46;2.78;;;1.60;;
64881;SDS011;51375;44.836;38.672;2023-11-19T10:47:12;2.13;;;1.40;;
64881;SDS011;51375;44.836;38.672;2023-11-19T10:49:40;2.15;;;1.50;;
64881;SDS011;51375;44.836;38.672;2023-11-19T10:52:07;2.83;;;1.40;;
64881;SDS011;51375;44.836;38.672;2023-11-19T10:54:34;1.98;;;1.50;;
64881;SDS011;51375;44.836;38.672;2023-11-19T10:57:01;2.83;;;1.70;;
64881;SDS011;51375;44.836;38.672;2023-11-19T10:59:31;2.75;;;1.50;;
64881;SDS011;51375;44.836;38.672;2023-11-19T11:02:00;2.30;;;1.50;;
64881;SDS011;51375;44.836;38.672;2023-11-19T11:04:32;1.77;;;1.27;;
64881;SDS011;51375;44.836;38.672;2023-11-19T11:07:05;1.55;;;1.30;;
64881;SDS011;51375;44.836;38.672;2023-11-19T11:09:32;6.07;;;1.42;;
64881;SDS011;51375;44.836;38.672;2023-11-19T11:11:58;1.67;;;1.20;;
64881;SDS011;51375;44.836;38.672;2023-11-19T11:14:25;1.67;;;1.50;;
64881;SDS011;51375;44.836;38.672;2023-11-19T11:16:52;4.82;;;1.60;;
64881;SDS011;51375;44.836;38.672;2023-11-19T11:19:19;1.40;;;1.10;;
64881;SDS011;51375;44.836;38.672;2023-11-19T11:21:52;2.08;;;1.35;;
64881;SDS011;51375;44.836;38.672;2023-11-19T11:24:36;1.35;;;1.25;;
64881;SDS011;51375;44.836;38.672;2023-11-19T11:27:21;1.40;;;1.23;;
64881;SDS011;51375;44.836;38.672;2023-11-19T11:30:31;1.40;;;1.27;;
64881;SDS011;51375;44.836;38.672;2023-11-19T11:38:23;1.88;;;1.60;;
64881;SDS011;51375;44.836;38.672;2023-11-19T11:43:44;3.10;;;2.38;;
64881;SDS011;51375;44.836;38.672;2023-11-19T11:49:05;2.15;;;1.40;;
64881;SDS011;51375;44.836;38.672;2023-11-19T11:57:01;2.53;;;2.10;;
64881;SDS011;51375;44.836;38.672;2023-11-19T11:59:42;7.55;;;2.28;;
64881;SDS011;51375;44.836;38.672;2023-11-19T12:02:11;2.58;;;1.77;;
64881;SDS011;51375;44.836;38.672;2023-11-19T12:04:39;2.97;;;2.35;;
64881;SDS011;51375;44.836;38.672;2023-11-19T12:07:06;3.70;;;2.65;;
64881;SDS011;51375;44.836;38.672;2023-11-19T12:09:36;4.05;;;3.10;;
64881;SDS011;51375;44.836;38.672;2023-11-19T12:20:04;6.05;;;4.70;;
64881;SDS011;51375;44.836;38.672;2023-11-19T12:22:40;5.38;;;3.80;;
64881;SDS011;51375;44.836;38.672;2023-11-19T12:25:07;7.90;;;3.95;;
64881;SDS011;51375;44.836;38.672;2023-11-19T12:27:36;5.30;;;4.25;;
64881;SDS011;51375;44.836;38.672;2023-11-19T12:30:03;3.70;;;3.10;;
64881;SDS011;51375;44.836;38.672;2023-11-19T12:32:40;7.05;;;3.95;;
64881;SDS011;51375;44.836;38.672;2023-11-19T12:35:11;6.40;;;4.47;;
64881;SDS011;51375;44.836;38.672;2023-11-19T12:42:47;10.65;;;5.95;;
64881;SDS011;51375;44.836;38.672;2023-11-19T12:45:13;12.10;;;8.00;;
64881;SDS011;51375;44.836;38.672;2023-11-19T12:47:41;6.30;;;4.45;;
64881;SDS011;51375;44.836;38.672;2023-11-19T12:50:09;4.32;;;2.50;;
64881;SDS011;51375;44.836;38.672;2023-11-19T12:52:35;2.35;;;2.00;;
64881;SDS011;51375;44.836;38.672;2023-11-19T12:55:05;2.65;;;2.28;;
64881;SDS011;51375;44.836;38.672;2023-11-19T12:57:52;2.53;;;2.17;;
64881;SDS011;51375;44.836;38.672;2023-11-19T13:00:21;3.00;;;2.70;;
64881;SDS011;51375;44.836;38.672;2023-11-19T13:05:22;3.70;;;3.10;;
64881;SDS011;51375;44.836;38.672;2023-11-19T13:07:49;5.07;;;3.60;;
64881;SDS011;51375;44.836;38.672;2023-11-19T13:10:15;4.82;;;3.75;;
64881;SDS011;51375;44.836;38.672;2023-11-19T13:12:41;6.13;;;3.88;;
64881;SDS011;51375;44.836;38.672;2023-11-19T13:15:06;6.70;;;4.47;;
64881;SDS011;51375;44.836;38.672;2023-11-19T13:17:48;5.65;;;4.80;;
64881;SDS011;51375;44.836;38.672;2023-11-19T13:20:14;6.55;;;5.53;;
64881;SDS011;51375;44.836;38.672;2023-11-19T13:22:53;5.82;;;4.70;;
64881;SDS011;51375;44.836;38.672;2023-11-19T13:25:26;6.05;;;4.60;;
64881;SDS011;51375;44.836;38.672;2023-11-19T13:27:53;6.28;;;5.10;;
64881;SDS011;51375;44.836;38.672;2023-11-19T13:30:20;5.25;;;4.13;;
64881;SDS011;51375;44.836;38.672;2023-11-19T13:32:47;5.72;;;3.55;;
64881;SDS011;51375;44.836;38.672;2023-11-19T13:35:14;4.65;;;3.55;;
64881;SDS011;51375;44.836;38.672;2023-11-19T13:37:42;6.97;;;4.10;;
64881;SDS011;51375;44.836;38.672;2023-11-19T13:40:08;4.43;;;3.60;;
64881;SDS011;51375;44.836;38.672;2023-11-19T13:42:41;4.60;;;3.65;;
64881;SDS011;51375;44.836;38.672;2023-11-19T13:45:11;4.72;;;3.70;;
64881;SDS011;51375;44.836;38.672;2023-11-19T13:47:42;6.07;;;3.90;;
64881;SDS011;51375;44.836;38.672;2023-11-19T13:50:09;6.15;;;4.15;;
64881;SDS011;51375;44.836;38.672;2023-11-19T13:52:36;3.20;;;2.67;;
64881;SDS011;51375;44.836;38.672;2023-11-19T13:55:07;3.55;;;2.60;;
64881;SDS011;51375;44.836;38.672;2023-11-19T13:57:37;6.93;;;3.97;;
64881;SDS011;51375;44.836;38.672;2023-11-19T14:00:05;4.20;;;3.08;;
64881;SDS011;51375;44.836;38.672;2023-11-19T14:02:51;5.07;;;3.70;;
64881;SDS011;51375;44.836;38.672;2023-11-19T14:05:17;6.38;;;4.43;;
64881;SDS011;51375;44.836;38.672;2023-11-19T14:07:44;4.53;;;3.72;;
64881;SDS011;51375;44.836;38.672;2023-11-19T14:10:14;5.03;;;3.45;;
64881;SDS011;51375;44.836;38.672;2023-11-19T14:12:41;6.53;;;4.15;;
64881;SDS011;51375;44.836;38.672;2023-11-19T14:15:07;13.32;;;3.53;;
64881;SDS011;51375;44.836;38.672;2023-11-19T14:17:42;3.60;;;2.85;;
64881;SDS011;51375;44.836;38.672;2023-11-19T14:20:09;5.13;;;3.25;;
64881;SDS011;51375;44.836;38.672;2023-11-19T14:22:41;6.70;;;4.65;;
64881;SDS011;51375;44.836;38.672;2023-11-19T14:25:08;4.20;;;3.42;;
64881;SDS011;51375;44.836;38.672;2023-11-19T14:27:39;5.35;;;3.67;;
64881;SDS011;51375;44.836;38.672;2023-11-19T14:30:06;5.65;;;3.47;;
64881;SDS011;51375;44.836;38.672;2023-11-19T14:32:37;4.55;;;3.58;;
64881;SDS011;51375;44.836;38.672;2023-11-19T14:35:04;7.32;;;4.32;;
64881;SDS011;51375;44.836;38.672;2023-11-19T14:37:31;7.63;;;4.10;;
64881;SDS011;51375;44.836;38.672;2023-11-19T14:39:57;8.38;;;5.18;;
64881;SDS011;51375;44.836;38.672;2023-11-19T14:42:24;5.00;;;4.13;;
64881;SDS011;51375;44.836;38.672;2023-11-19T14:44:53;5.45;;;4.20;;
64881;SDS011;51375;44.836;38.672;2023-11-19T14:47:19;5.97;;;3.42;;
64881;SDS011;51375;44.836;38.672;2023-11-19T14:49:45;6.72;;;3.92;;
64881;SDS011;51375;44.836;38.672;2023-11-19T14:52:11;7.15;;;4.13;;
64881;SDS011;51375;44.836;38.672;2023-11-19T14:54:38;5.50;;;3.90;;
64881;SDS011;51375;44.836;38.672;2023-11-19T14:57:07;6.97;;;5.00;;
64881;SDS011;51375;44.836;38.672;2023-11-19T14:59:36;5.13;;;3.92;;
64881;SDS011;51375;44.836;38.672;2023-11-19T15:02:03;9.20;;;4.38;;
64881;SDS011;51375;44.836;38.672;2023-11-19T15:04:29;5.72;;;4.07;;
64881;SDS011;51375;44.836;38.672;2023-11-19T15:06:58;9.38;;;4.65;;
64881;SDS011;51375;44.836;38.672;2023-11-19T15:09:25;8.27;;;5.70;;
64881;SDS011;51375;44.836;38.672;2023-11-19T15:11:54;7.40;;;5.40;;
64881;SDS011;51375;44.836;38.672;2023-11-19T15:14:20;14.73;;;6.35;;